Aurora, IL

8:57 PM CST on February 24, 2017 (GMT -0600)
Fox Valley Farms, Inc | | Change Station

Elev 732 ft 41.81 °N, 88.27 °W | Updated 54 minutes ago

Overcast
Overcast
36.9 °F
Feels Like 34 °F
N
4.0
Wind Variable Wind from NE

Today
High -- | Low -- °F
--% Chance of Precip.
Yesterday
High -- | Low -- °F
Precip. -- in
Pressure 29.61 in
Visibility 10.0 miles
Clouds Mostly Cloudy 800 ft
Mostly Cloudy 1700 ft
Overcast 3400 ft
Windchill 34 °F
Dew Point 36 °F
Humidity 98%
Rainfall 0.05 in
Snow Depth Not available.
6:35 AM 5:37 PM
Waning Crescent, 3% visible
METAR KDPA 250252Z 31011KT 10SM BKN008 BKN017 OVC034 00/M02 A2959 RMK AO2 RAE0158UPB0158E04 CIG 006V010 SLP026 P0000 60001 T00001017 53019
Pressure 29.61 in
Visibility 10.0 miles
Clouds Mostly Cloudy 800 ft
Mostly Cloudy 1700 ft
Overcast 3400 ft
Windchill 34 °F
Dew Point 36 °F
Humidity 98%
Rainfall 0.05 in
Snow Depth Not available.
6:35 AM 5:37 PM
Waning Crescent, 3% visible
METAR KDPA 250252Z 31011KT 10SM BKN008 BKN017 OVC034 00/M02 A2959 RMK AO2 RAE0158UPB0158E04 CIG 006V010 SLP026 P0000 60001 T00001017 53019

Get Your Daily Forecast Email!

Thanks for signing up!

Be on the lookout for a verification email in your inbox.

You'll start receiving the daily forecast at 8 AM.

×

10-Day Weather Forecast

Almanac

Astronomy

Feb. 24, 2017 Rise Set
Actual Time
Civil Twilight
Nautical Twilight
Astronomical Twilight
Moon
Length of Visible Light
Length of Day
Tomorrow will be .
, % of the Moon is Illuminated

Today's Extremes

State Highs State Lows

Community

WunderPhotos

Upload Photos

1,962,540 photos uploaded!

WunderBlog® & News

Nearby

Air Quality

  Air Quality AQ Index Pollutant
Not available.

Snow Depth

Station Depth Elevation

Earthquake Activity

City Distance Mag. Time & Date
Minimum magnitude displayed is 2.5.

Coastal Water Temperatures

Place Temperature

Stations

Nearby Weather Stations

Station Location Temp. Windchill Dew Point Humidity Wind Precip. Elev Updated Type
                   

Watches & Warnings

There are currently no watches in effect.